createdAt,value
2022-08-31T00:00:40.057Z,14.00
2022-08-31T00:01:55.342Z,13.63
2022-08-31T00:03:10.794Z,12.63
2022-08-31T00:04:09.169Z,13.43
2022-08-31T00:05:06.818Z,13.68
2022-08-31T00:06:05.104Z,13.82
2022-08-31T00:07:01.729Z,13.93
2022-08-31T00:07:58.390Z,14.07
2022-08-31T00:08:55.234Z,13.15
2022-08-31T00:09:51.920Z,13.88
2022-08-31T00:10:49.714Z,13.02
2022-08-31T00:11:46.418Z,13.75
2022-08-31T00:12:47.473Z,13.85
2022-08-31T00:13:44.534Z,15.18
2022-08-31T00:14:41.257Z,13.15
2022-08-31T00:15:38.117Z,13.52
2022-08-31T00:16:37.507Z,13.48
2022-08-31T00:17:34.231Z,13.98
2022-08-31T00:18:31.077Z,13.55
2022-08-31T00:19:27.864Z,13.23
2022-08-31T00:20:33.664Z,13.30
2022-08-31T00:21:31.471Z,12.90
2022-08-31T00:22:28.118Z,13.15
2022-08-31T00:23:26.217Z,13.15
2022-08-31T00:24:22.873Z,13.38
2022-08-31T00:25:20.257Z,11.88
2022-08-31T00:26:17.212Z,12.82
2022-08-31T00:27:15.423Z,13.25
2022-08-31T00:28:13.344Z,12.15
2022-08-31T00:29:10.563Z,12.18
2022-08-31T00:30:08.474Z,12.43
2022-08-31T00:31:05.096Z,12.13
2022-08-31T00:32:03.020Z,12.52
2022-08-31T00:33:01.247Z,11.90
2022-08-31T00:33:57.872Z,12.35
2022-08-31T00:34:54.992Z,11.98
2022-08-31T00:35:51.633Z,12.52
2022-08-31T00:36:48.358Z,11.68
2022-08-31T00:37:44.954Z,12.80
2022-08-31T00:38:42.482Z,10.73
2022-08-31T00:39:39.109Z,12.82
2022-08-31T00:40:44.330Z,12.43
2022-08-31T00:41:41.912Z,11.85
2022-08-31T00:42:38.588Z,11.00
2022-08-31T00:43:45.949Z,11.93
2022-08-31T00:44:42.682Z,11.32
2022-08-31T00:45:39.436Z,10.48
2022-08-31T00:46:40.314Z,10.18
2022-08-31T00:47:37.469Z,9.25
2022-08-31T00:48:37.226Z,10.02
2022-08-31T00:49:38.700Z,10.00
2022-08-31T00:50:35.423Z,9.93
2022-08-31T00:51:36.285Z,8.80
2022-08-31T00:52:38.105Z,10.57
2022-08-31T00:53:36.571Z,9.93
2022-08-31T00:54:41.384Z,10.82
2022-08-31T00:55:38.173Z,10.55
2022-08-31T00:56:37.333Z,9.85
2022-08-31T00:57:39.891Z,12.88
2022-08-31T00:58:36.757Z,11.23
2022-08-31T00:59:33.665Z,11.32
2022-08-31T01:00:31.548Z,11.07
2022-08-31T01:01:30.454Z,11.00
2022-08-31T01:02:27.103Z,12.25
2022-08-31T01:03:26.363Z,12.35
2022-08-31T01:04:23.183Z,12.00
2022-08-31T01:05:21.162Z,14.00
2022-08-31T01:06:18.748Z,11.60
2022-08-31T01:07:15.649Z,11.60
2022-08-31T01:08:12.754Z,11.45
2022-08-31T01:09:10.701Z,11.23
2022-08-31T01:10:08.988Z,10.45
2022-08-31T01:11:06.864Z,12.75
2022-08-31T01:12:07.801Z,10.23
2022-08-31T01:13:06.030Z,12.05
2022-08-31T01:14:02.872Z,12.60
2022-08-31T01:15:02.974Z,14.70
2022-08-31T01:16:05.666Z,14.43
2022-08-31T01:17:03.064Z,14.93
2022-08-31T01:18:02.289Z,13.32
2022-08-31T01:19:02.590Z,12.73
2022-08-31T01:20:28.421Z,13.13
2022-08-31T01:21:49.079Z,10.55
2022-08-31T01:22:51.849Z,11.77
2022-08-31T01:23:48.529Z,13.52
2022-08-31T01:24:48.092Z,15.25
2022-08-31T01:25:47.349Z,16.23
2022-08-31T01:26:44.825Z,13.75
2022-08-31T01:27:52.876Z,10.82
2022-08-31T01:28:52.502Z,13.00
2022-08-31T01:29:49.325Z,14.38
2022-08-31T01:31:21.097Z,11.23
2022-08-31T01:32:17.889Z,11.48
2022-08-31T01:33:14.609Z,11.85
2022-08-31T01:34:11.383Z,11.80
2022-08-31T01:35:11.616Z,12.55
2022-08-31T01:36:13.063Z,13.95
2022-08-31T01:37:12.519Z,14.32
2022-08-31T01:38:11.020Z,15.05
2022-08-31T01:39:09.350Z,15.15
2022-08-31T01:40:07.058Z,13.93
2022-08-31T01:41:04.929Z,15.05
2022-08-31T01:42:01.650Z,15.90
2022-08-31T01:42:58.315Z,17.85
2022-08-31T01:43:55.343Z,15.95
2022-08-31T01:44:51.988Z,15.40
2022-08-31T01:45:49.798Z,18.13
2022-08-31T01:46:46.589Z,18.95
2022-08-31T01:47:43.233Z,15.05
2022-08-31T01:48:43.647Z,14.68
2022-08-31T01:49:40.320Z,15.52
2022-08-31T01:50:37.096Z,14.65
2022-08-31T01:51:34.412Z,15.20
2022-08-31T01:52:31.020Z,15.90
2022-08-31T01:53:27.656Z,18.00
2022-08-31T01:54:27.175Z,15.50
2022-08-31T01:55:23.826Z,14.60
2022-08-31T01:56:24.810Z,15.38
2022-08-31T01:57:26.975Z,14.93
2022-08-31T01:58:31.101Z,17.02
2022-08-31T01:59:28.054Z,15.32
2022-08-31T02:00:24.999Z,14.82
2022-08-31T02:01:34.051Z,14.82
2022-08-31T02:02:32.017Z,15.70
2022-08-31T02:03:28.714Z,12.60
2022-08-31T02:04:27.302Z,17.73
2022-08-31T02:05:23.889Z,17.55
2022-08-31T02:06:20.557Z,18.45
2022-08-31T02:07:17.256Z,18.38
2022-08-31T02:08:14.016Z,18.73
2022-08-31T02:09:11.527Z,16.45
2022-08-31T02:10:08.987Z,14.25
2022-08-31T02:11:07.251Z,13.63
2022-08-31T02:12:04.489Z,15.80
2022-08-31T02:13:01.486Z,14.55
2022-08-31T02:13:58.263Z,15.15
2022-08-31T02:14:54.975Z,12.25
2022-08-31T02:15:51.714Z,13.20
2022-08-31T02:16:49.361Z,13.25
2022-08-31T02:17:46.128Z,13.20
2022-08-31T02:18:42.890Z,13.07
2022-08-31T02:19:39.535Z,13.50
2022-08-31T02:20:37.307Z,13.27
2022-08-31T02:21:36.802Z,13.18
2022-08-31T02:22:33.869Z,12.57
2022-08-31T02:23:30.688Z,12.43
2022-08-31T02:24:27.330Z,12.75
2022-08-31T02:25:24.288Z,13.98
2022-08-31T02:26:21.104Z,14.85
2022-08-31T02:27:17.840Z,16.23
2022-08-31T02:28:15.030Z,18.70
2022-08-31T02:29:11.889Z,18.58
2022-08-31T02:30:12.253Z,16.95
2022-08-31T02:31:09.021Z,15.45
2022-08-31T02:32:06.004Z,15.40
2022-08-31T02:33:02.683Z,14.85
2022-08-31T02:33:59.309Z,13.38
2022-08-31T02:34:55.980Z,13.18
2022-08-31T02:35:53.592Z,13.88
2022-08-31T02:36:50.818Z,14.45
2022-08-31T02:37:48.053Z,13.25
2022-08-31T02:38:44.890Z,12.52
2022-08-31T02:39:41.778Z,14.88
2022-08-31T02:40:41.031Z,13.43
2022-08-31T02:41:38.018Z,14.60
2022-08-31T02:42:53.613Z,15.50
2022-08-31T02:43:50.995Z,15.50
2022-08-31T02:44:47.679Z,14.93
2022-08-31T02:45:44.396Z,14.60
2022-08-31T02:46:47.784Z,14.93
2022-08-31T02:47:44.631Z,14.13
2022-08-31T02:48:41.261Z,15.68
2022-08-31T02:49:37.975Z,14.70
2022-08-31T02:50:42.157Z,16.80
2022-08-31T02:51:42.801Z,13.23
2022-08-31T02:52:39.741Z,12.98
2022-08-31T02:53:37.902Z,13.95
2022-08-31T02:54:34.660Z,14.63
2022-08-31T02:55:31.324Z,13.68
2022-08-31T02:56:28.007Z,15.75
2022-08-31T02:57:24.803Z,15.13
2022-08-31T02:58:24.125Z,14.82
2022-08-31T02:59:20.952Z,15.13
2022-08-31T03:00:21.278Z,14.73
2022-08-31T03:01:18.060Z,14.38
2022-08-31T03:02:15.437Z,15.23
2022-08-31T03:03:13.142Z,15.45
2022-08-31T03:04:09.911Z,15.45
2022-08-31T03:05:08.166Z,14.45
2022-08-31T03:06:04.897Z,16.10
2022-08-31T03:07:02.016Z,14.65
2022-08-31T03:07:58.667Z,18.25
2022-08-31T03:08:55.718Z,18.83
2022-08-31T03:09:52.495Z,15.95
2022-08-31T03:10:49.553Z,15.02
2022-08-31T03:11:46.179Z,15.07
2022-08-31T03:12:43.008Z,14.25
2022-08-31T03:13:40.846Z,14.75
2022-08-31T03:14:37.588Z,15.70
2022-08-31T03:15:34.473Z,14.57
2022-08-31T03:16:31.353Z,18.02
2022-08-31T03:17:28.138Z,19.45
2022-08-31T03:18:25.032Z,17.02
2022-08-31T03:19:22.217Z,18.33
2022-08-31T03:20:20.603Z,19.60
2022-08-31T03:21:17.256Z,19.55
2022-08-31T03:22:14.805Z,15.90
2022-08-31T03:23:12.381Z,15.10
2022-08-31T03:24:09.469Z,14.80
2022-08-31T03:25:08.712Z,14.40
2022-08-31T03:26:08.442Z,14.85
2022-08-31T03:27:05.111Z,15.25
2022-08-31T03:28:01.889Z,16.48
2022-08-31T03:28:58.715Z,14.77
2022-08-31T03:29:55.344Z,13.77
2022-08-31T03:30:52.878Z,15.20
2022-08-31T03:31:49.725Z,14.80
2022-08-31T03:32:48.246Z,15.60
2022-08-31T03:33:44.883Z,14.40
2022-08-31T03:34:41.549Z,14.10
2022-08-31T03:35:38.870Z,13.88
2022-08-31T03:36:35.535Z,16.20
2022-08-31T03:37:32.527Z,13.73
2022-08-31T03:38:29.189Z,15.43
2022-08-31T03:39:25.902Z,15.68
2022-08-31T03:40:22.597Z,14.65
2022-08-31T03:41:23.663Z,15.02
2022-08-31T03:42:20.556Z,16.98
2022-08-31T03:43:17.927Z,15.75
2022-08-31T03:44:14.977Z,14.25
2022-08-31T03:45:12.211Z,14.75
2022-08-31T03:46:08.842Z,14.65
2022-08-31T03:47:09.648Z,15.45
2022-08-31T03:48:12.792Z,19.55
2022-08-31T03:49:12.478Z,17.88
2022-08-31T03:50:11.007Z,17.38
2022-08-31T03:51:08.081Z,16.05
2022-08-31T03:52:04.950Z,15.40
2022-08-31T03:53:04.263Z,16.13
2022-08-31T03:54:00.940Z,16.15
2022-08-31T03:54:57.639Z,16.92
2022-08-31T03:56:01.751Z,19.25
2022-08-31T03:56:58.555Z,18.85
2022-08-31T03:57:55.545Z,17.13
2022-08-31T03:58:52.259Z,15.38
2022-08-31T03:59:52.991Z,16.88
2022-08-31T04:00:49.634Z,20.88
2022-08-31T04:01:46.295Z,23.15
2022-08-31T04:02:43.959Z,21.02
2022-08-31T04:03:40.709Z,18.83
2022-08-31T04:04:37.407Z,15.70
2022-08-31T04:05:41.907Z,15.90
2022-08-31T04:06:41.618Z,19.88
2022-08-31T04:07:42.934Z,16.25
2022-08-31T04:08:40.811Z,19.92
2022-08-31T04:09:37.444Z,15.43
2022-08-31T04:10:34.080Z,15.98
2022-08-31T04:11:44.677Z,15.32
2022-08-31T04:12:42.386Z,18.77
2022-08-31T04:13:40.456Z,19.17
2022-08-31T04:14:37.418Z,19.45
2022-08-31T04:15:36.362Z,14.75
2022-08-31T04:16:36.217Z,14.25
2022-08-31T04:17:33.517Z,16.63
2022-08-31T04:18:30.243Z,17.38
2022-08-31T04:19:27.029Z,17.63
2022-08-31T04:20:30.002Z,16.83
2022-08-31T04:21:31.074Z,16.10
2022-08-31T04:22:27.937Z,16.63
2022-08-31T04:23:29.345Z,16.88
2022-08-31T04:24:26.123Z,16.80
2022-08-31T04:25:22.916Z,16.75
2022-08-31T04:26:25.706Z,18.85
2022-08-31T04:27:22.611Z,14.98
2022-08-31T04:28:19.311Z,16.20
2022-08-31T04:29:16.033Z,21.92
2022-08-31T04:30:13.217Z,22.30
2022-08-31T04:31:10.182Z,21.75
2022-08-31T04:32:06.963Z,23.75
2022-08-31T04:33:04.495Z,24.00
2022-08-31T04:34:01.176Z,23.92
2022-08-31T04:34:58.132Z,25.25
2022-08-31T04:35:54.771Z,25.58
2022-08-31T04:36:51.613Z,24.77
2022-08-31T04:37:49.042Z,25.38
2022-08-31T04:38:48.988Z,25.48
2022-08-31T04:39:50.937Z,25.75
2022-08-31T04:40:47.960Z,25.55
2022-08-31T04:41:50.104Z,23.88
2022-08-31T04:42:48.386Z,25.85
2022-08-31T04:43:48.207Z,24.88
2022-08-31T04:44:44.813Z,23.83
2022-08-31T04:45:45.127Z,23.83
2022-08-31T04:46:43.026Z,23.95
2022-08-31T04:47:42.005Z,19.42
2022-08-31T04:48:40.406Z,19.70
2022-08-31T04:49:37.030Z,19.85
2022-08-31T04:50:33.627Z,19.10
2022-08-31T04:51:33.077Z,20.27
2022-08-31T04:52:29.762Z,20.70
2022-08-31T04:53:27.187Z,20.75
2022-08-31T04:54:23.841Z,21.13
2022-08-31T04:55:20.497Z,17.25
2022-08-31T04:56:20.787Z,19.42
2022-08-31T04:57:17.475Z,18.67
2022-08-31T04:58:14.223Z,21.20
2022-08-31T04:59:14.577Z,21.25
2022-08-31T05:00:11.582Z,19.33
2022-08-31T05:01:10.393Z,19.35
2022-08-31T05:02:07.250Z,18.27
2022-08-31T05:03:04.271Z,20.08
2022-08-31T05:04:01.589Z,21.42
2022-08-31T05:04:58.434Z,21.92
2022-08-31T05:05:55.211Z,21.98
2022-08-31T05:06:52.034Z,20.55
2022-08-31T05:07:48.700Z,21.15
2022-08-31T05:08:45.585Z,20.63
2022-08-31T05:09:42.664Z,21.13
2022-08-31T05:10:41.303Z,21.73
2022-08-31T05:11:38.213Z,22.38
2022-08-31T05:12:34.900Z,22.92
2022-08-31T05:13:32.020Z,22.02
2022-08-31T05:14:28.691Z,21.70
2022-08-31T05:15:25.382Z,21.73
2022-08-31T05:16:22.080Z,23.25
2022-08-31T05:17:18.815Z,21.88
2022-08-31T05:18:15.471Z,22.00
2022-08-31T05:19:12.541Z,23.73
2022-08-31T05:20:09.557Z,21.55
2022-08-31T05:21:11.873Z,22.63
2022-08-31T05:22:08.653Z,22.40
2022-08-31T05:23:05.548Z,22.08
2022-08-31T05:24:06.583Z,22.60
2022-08-31T05:25:06.982Z,23.58
2022-08-31T05:26:05.460Z,23.40
2022-08-31T05:27:02.756Z,22.42
2022-08-31T05:27:59.765Z,26.27
2022-08-31T05:28:58.407Z,26.13
2022-08-31T05:29:55.094Z,26.63
2022-08-31T05:30:51.846Z,25.13
2022-08-31T05:31:52.287Z,25.35
2022-08-31T05:32:49.536Z,24.08
2022-08-31T05:33:46.151Z,24.63
2022-08-31T05:34:42.803Z,24.52
2022-08-31T05:35:39.941Z,24.30
2022-08-31T05:36:36.592Z,22.50
2022-08-31T05:37:33.352Z,23.00
2022-08-31T05:38:30.525Z,21.52
2022-08-31T05:39:27.300Z,22.85
2022-08-31T05:40:23.951Z,22.17
2022-08-31T05:41:22.271Z,21.00
2022-08-31T05:42:21.160Z,20.33
2022-08-31T05:43:18.129Z,19.73
2022-08-31T05:44:15.657Z,19.77
2022-08-31T05:45:12.493Z,20.63
2022-08-31T05:46:13.395Z,19.02
2022-08-31T05:47:10.166Z,19.67
2022-08-31T05:48:06.881Z,17.48
2022-08-31T05:49:06.283Z,16.95
2022-08-31T05:50:03.413Z,16.80
2022-08-31T05:51:11.451Z,16.60
2022-08-31T05:52:09.573Z,16.48
2022-08-31T05:53:08.074Z,17.98
2022-08-31T05:54:04.827Z,18.05
2022-08-31T05:55:01.528Z,17.98
2022-08-31T05:56:03.871Z,16.23
2022-08-31T05:57:01.257Z,17.90
2022-08-31T05:57:58.249Z,14.45
2022-08-31T05:58:56.216Z,17.00
2022-08-31T05:59:52.946Z,16.92
2022-08-31T06:00:49.546Z,16.50
2022-08-31T06:01:46.406Z,16.27
2022-08-31T06:02:43.202Z,16.80
2022-08-31T06:03:39.874Z,15.15
2022-08-31T06:04:36.478Z,16.15
2022-08-31T06:05:33.126Z,16.58
2022-08-31T06:06:30.250Z,16.70
2022-08-31T06:07:27.060Z,15.73
2022-08-31T06:08:27.089Z,16.40
2022-08-31T06:09:24.521Z,15.65
2022-08-31T06:10:21.278Z,15.45
2022-08-31T06:11:20.755Z,14.52
2022-08-31T06:12:20.569Z,14.38
2022-08-31T06:13:17.700Z,14.45
2022-08-31T06:14:14.780Z,15.70
2022-08-31T06:15:12.005Z,15.20
2022-08-31T06:16:09.926Z,14.30
2022-08-31T06:17:06.979Z,15.50
2022-08-31T06:18:05.520Z,15.45
2022-08-31T06:19:04.736Z,14.23
2022-08-31T06:20:02.292Z,13.13
2022-08-31T06:21:09.242Z,13.45
2022-08-31T06:22:05.910Z,12.95
2022-08-31T06:23:04.152Z,13.18
2022-08-31T06:24:03.304Z,12.85
2022-08-31T06:24:59.952Z,14.30
2022-08-31T06:26:12.753Z,13.57
2022-08-31T06:27:10.380Z,14.95
2022-08-31T06:28:07.466Z,13.70
2022-08-31T06:29:09.479Z,14.43
2022-08-31T06:30:07.956Z,14.52
2022-08-31T06:31:12.095Z,11.75
2022-08-31T06:32:11.047Z,14.27
2022-08-31T06:33:07.889Z,13.75
2022-08-31T06:34:07.188Z,11.88
2022-08-31T06:35:06.600Z,13.32
2022-08-31T06:36:03.643Z,12.50
2022-08-31T06:37:01.378Z,12.68
2022-08-31T06:37:58.541Z,13.23
2022-08-31T06:38:56.359Z,13.15
2022-08-31T06:39:53.873Z,11.90
2022-08-31T06:40:50.862Z,13.65
2022-08-31T06:41:48.984Z,13.32
2022-08-31T06:42:45.716Z,13.00
2022-08-31T06:43:43.421Z,12.48
2022-08-31T06:44:40.118Z,13.02
2022-08-31T06:45:36.848Z,12.07
2022-08-31T06:46:34.910Z,13.20
2022-08-31T06:47:31.706Z,12.45
2022-08-31T06:48:28.538Z,12.60
2022-08-31T06:49:26.085Z,12.43
2022-08-31T06:50:22.756Z,11.65
2022-08-31T06:51:19.423Z,11.30
2022-08-31T06:52:16.136Z,11.18
2022-08-31T06:53:12.732Z,11.52
2022-08-31T06:54:28.551Z,10.82
2022-08-31T06:55:26.401Z,11.38
2022-08-31T06:56:25.409Z,10.70
2022-08-31T06:57:22.759Z,11.93
2022-08-31T06:58:19.389Z,9.52
2022-08-31T06:59:15.997Z,10.85
2022-08-31T07:00:12.713Z,10.90
2022-08-31T07:01:13.637Z,11.80
2022-08-31T07:02:12.693Z,10.75
2022-08-31T07:03:24.599Z,11.07
2022-08-31T07:04:21.316Z,11.25
2022-08-31T07:05:24.526Z,12.13
2022-08-31T07:06:24.361Z,11.20
2022-08-31T07:07:21.036Z,11.07
2022-08-31T07:08:18.806Z,11.48
2022-08-31T07:09:17.963Z,11.40
2022-08-31T07:10:14.739Z,11.00
2022-08-31T07:11:23.762Z,11.10
2022-08-31T07:12:22.312Z,11.15
2022-08-31T07:13:19.092Z,9.95
2022-08-31T07:14:18.819Z,11.50
2022-08-31T07:15:15.469Z,10.25
2022-08-31T07:16:15.375Z,10.77
2022-08-31T07:17:12.404Z,10.32
2022-08-31T07:18:10.550Z,10.38
2022-08-31T07:19:08.039Z,9.57
2022-08-31T07:20:05.036Z,10.48
2022-08-31T07:21:25.957Z,11.15
2022-08-31T07:22:22.608Z,10.48
2022-08-31T07:23:19.398Z,11.23
2022-08-31T07:24:18.748Z,10.13
2022-08-31T07:25:15.624Z,10.82
2022-08-31T07:26:19.372Z,9.43
2022-08-31T07:27:18.314Z,10.20
2022-08-31T07:28:14.981Z,9.13
2022-08-31T07:29:14.964Z,10.27
2022-08-31T07:30:12.527Z,9.52
2022-08-31T07:31:11.361Z,9.20
2022-08-31T07:32:11.948Z,9.77
2022-08-31T07:33:09.450Z,9.57
2022-08-31T07:34:08.223Z,10.38
2022-08-31T07:35:06.508Z,10.13
2022-08-31T07:36:03.370Z,9.35
2022-08-31T07:37:19.641Z,9.77
2022-08-31T07:38:35.343Z,9.75
2022-08-31T07:39:51.852Z,8.32
2022-08-31T07:41:08.133Z,10.18
2022-08-31T07:42:12.332Z,9.88
2022-08-31T07:43:08.944Z,9.63
2022-08-31T07:44:05.648Z,9.60
2022-08-31T07:45:05.733Z,9.68
2022-08-31T07:46:06.795Z,8.63
2022-08-31T07:47:04.685Z,8.88
2022-08-31T07:48:01.791Z,8.55
2022-08-31T07:48:59.358Z,9.63
2022-08-31T07:49:58.519Z,9.48
2022-08-31T07:50:58.415Z,9.75
2022-08-31T07:51:57.229Z,8.48
2022-08-31T07:52:55.716Z,10.00
2022-08-31T07:53:53.786Z,8.75
2022-08-31T07:54:52.910Z,8.35
2022-08-31T07:55:55.575Z,9.73
2022-08-31T07:56:52.846Z,9.45
2022-08-31T07:57:51.840Z,11.00
2022-08-31T07:58:50.133Z,10.10
2022-08-31T07:59:49.611Z,9.15
2022-08-31T08:00:47.809Z,9.60
2022-08-31T08:01:45.217Z,9.75
2022-08-31T08:02:50.858Z,9.23
2022-08-31T08:03:53.566Z,9.70
2022-08-31T08:04:54.016Z,8.45
2022-08-31T08:05:51.983Z,9.45
2022-08-31T08:06:49.124Z,9.02
2022-08-31T08:07:45.740Z,8.95
2022-08-31T08:09:12.917Z,9.02
2022-08-31T08:10:14.283Z,8.90
2022-08-31T08:11:18.736Z,8.30
2022-08-31T08:12:15.398Z,8.15
2022-08-31T08:13:13.330Z,8.20
2022-08-31T08:14:10.273Z,8.98
2022-08-31T08:15:07.457Z,8.75
2022-08-31T08:16:06.368Z,7.78
2022-08-31T08:17:06.561Z,8.70
2022-08-31T08:18:05.251Z,8.02
2022-08-31T08:19:01.941Z,9.13
2022-08-31T08:19:58.595Z,8.57
2022-08-31T08:20:55.538Z,6.88
2022-08-31T08:21:52.399Z,7.60
2022-08-31T08:22:55.377Z,9.38
2022-08-31T08:23:53.094Z,7.53
2022-08-31T08:24:50.550Z,7.63
2022-08-31T08:25:47.828Z,8.82
2022-08-31T08:26:52.123Z,7.50
2022-08-31T08:27:54.252Z,7.75
2022-08-31T08:28:51.329Z,8.00
2022-08-31T08:29:48.546Z,7.53
2022-08-31T08:30:46.928Z,8.02
2022-08-31T08:31:46.285Z,6.90
2022-08-31T08:32:43.172Z,6.57
2022-08-31T08:33:39.839Z,6.45
2022-08-31T08:34:43.491Z,6.78
2022-08-31T08:35:41.109Z,6.55
2022-08-31T08:36:40.864Z,6.55
2022-08-31T08:37:57.816Z,7.65
2022-08-31T08:38:57.488Z,7.47
2022-08-31T08:39:55.902Z,7.53
2022-08-31T08:40:53.340Z,7.00
2022-08-31T08:41:54.433Z,7.80
2022-08-31T08:42:51.137Z,6.55
2022-08-31T08:43:53.155Z,6.97
2022-08-31T08:44:49.988Z,7.15
2022-08-31T08:45:50.018Z,6.57
2022-08-31T08:46:51.406Z,7.88
2022-08-31T08:47:50.000Z,6.82
2022-08-31T08:48:55.577Z,6.43
2022-08-31T08:49:55.016Z,6.97
2022-08-31T08:50:53.371Z,6.78
2022-08-31T08:51:54.875Z,7.55
2022-08-31T08:52:51.741Z,6.47
2022-08-31T08:53:52.266Z,6.20
2022-08-31T08:54:51.473Z,6.30
2022-08-31T08:55:48.283Z,6.88
2022-08-31T08:56:49.157Z,5.93
2022-08-31T08:57:47.782Z,6.50
2022-08-31T08:58:45.327Z,6.38
2022-08-31T08:59:43.784Z,6.78
2022-08-31T09:00:46.759Z,5.90
2022-08-31T09:01:47.296Z,6.55
2022-08-31T09:02:58.497Z,5.35
2022-08-31T09:04:10.390Z,6.20
2022-08-31T09:05:35.513Z,5.72
2022-08-31T09:06:54.637Z,5.93
2022-08-31T09:07:54.281Z,5.57
2022-08-31T09:09:04.070Z,5.95
2022-08-31T09:10:18.952Z,5.78
2022-08-31T09:11:38.722Z,5.65
2022-08-31T09:12:58.725Z,5.47
2022-08-31T09:14:19.294Z,5.60
2022-08-31T09:15:51.943Z,6.60
2022-08-31T09:17:03.703Z,4.97
2022-08-31T09:18:30.513Z,5.93
2022-08-31T09:19:27.227Z,5.50
2022-08-31T09:20:24.220Z,5.57
2022-08-31T09:21:31.011Z,5.68
2022-08-31T09:22:29.289Z,5.65
2022-08-31T09:23:28.162Z,5.43
2022-08-31T09:24:30.276Z,6.22
2022-08-31T09:25:36.025Z,6.07
2022-08-31T09:27:18.550Z,5.82
2022-08-31T09:28:16.433Z,5.55
2022-08-31T09:29:29.270Z,7.03
2022-08-31T09:30:52.360Z,6.28
2022-08-31T09:32:01.081Z,7.20
2022-08-31T09:33:02.232Z,6.78
2022-08-31T09:33:58.970Z,6.90
2022-08-31T09:35:41.280Z,7.38
2022-08-31T09:36:40.978Z,6.82
2022-08-31T09:37:49.029Z,7.88
2022-08-31T09:38:47.293Z,6.63
2022-08-31T09:39:47.763Z,5.72
2022-08-31T09:40:49.805Z,6.32
2022-08-31T09:41:48.883Z,6.18
2022-08-31T09:43:01.017Z,7.10
2022-08-31T09:44:17.971Z,6.85
2022-08-31T09:45:30.058Z,7.57
2022-08-31T09:46:30.385Z,7.57
2022-08-31T09:47:48.948Z,7.20
2022-08-31T09:48:52.431Z,7.18
2022-08-31T09:49:56.023Z,6.93
2022-08-31T09:51:01.203Z,6.85
2022-08-31T09:52:18.932Z,7.00
2022-08-31T09:53:34.251Z,6.78
2022-08-31T09:54:49.693Z,6.82
2022-08-31T09:55:46.389Z,7.35
2022-08-31T09:57:10.712Z,7.55
2022-08-31T09:58:11.193Z,9.13
2022-08-31T09:59:11.744Z,10.82
2022-08-31T10:00:15.198Z,12.55
2022-08-31T10:01:20.292Z,14.00
2022-08-31T10:02:23.182Z,15.43
2022-08-31T10:03:24.414Z,12.82
2022-08-31T10:04:27.828Z,13.90
2022-08-31T10:05:32.438Z,12.85
2022-08-31T10:06:46.778Z,14.82
2022-08-31T10:07:51.447Z,15.85
2022-08-31T10:08:58.062Z,14.65
2022-08-31T10:10:03.395Z,10.63
2022-08-31T10:11:11.417Z,8.73
2022-08-31T10:12:11.692Z,8.82
2022-08-31T10:13:24.973Z,9.20
2022-08-31T10:14:27.682Z,12.00
2022-08-31T10:15:39.549Z,13.88
2022-08-31T10:16:46.224Z,13.18
2022-08-31T10:17:55.663Z,15.70
2022-08-31T10:19:02.029Z,15.18
2022-08-31T10:20:09.852Z,15.52
2022-08-31T10:21:16.201Z,16.13
2022-08-31T10:22:25.511Z,15.65
2022-08-31T10:23:34.878Z,16.08
2022-08-31T10:24:48.298Z,18.02
2022-08-31T10:26:01.066Z,17.42
2022-08-31T10:27:14.921Z,17.40
2022-08-31T10:28:32.128Z,18.33
2022-08-31T10:29:52.217Z,17.55
2022-08-31T10:31:02.973Z,18.20
2022-08-31T10:32:06.045Z,18.42
2022-08-31T10:33:17.966Z,19.17
2022-08-31T10:34:41.654Z,19.15
2022-08-31T10:35:57.911Z,18.33
2022-08-31T10:37:08.122Z,17.52
2022-08-31T10:38:24.171Z,18.70
2022-08-31T10:39:45.404Z,17.52
2022-08-31T10:40:51.307Z,17.55
2022-08-31T10:41:49.952Z,18.48
2022-08-31T10:42:59.357Z,16.63
2022-08-31T10:44:06.333Z,18.23
2022-08-31T10:45:19.100Z,18.27
2022-08-31T10:46:16.665Z,17.10
2022-08-31T10:47:21.562Z,18.15
2022-08-31T10:48:29.644Z,17.48
2022-08-31T10:49:26.629Z,17.50
2022-08-31T10:50:46.110Z,17.33
2022-08-31T10:51:55.993Z,16.98
2022-08-31T10:53:15.998Z,16.27
2022-08-31T10:54:17.006Z,16.85
2022-08-31T10:55:58.690Z,16.20
2022-08-31T10:57:31.571Z,15.95
2022-08-31T10:58:40.801Z,16.77
2022-08-31T10:59:54.066Z,15.45
2022-08-31T11:01:05.988Z,15.35
2022-08-31T11:02:29.770Z,15.73
2022-08-31T11:03:35.510Z,15.77
2022-08-31T11:04:48.928Z,16.52
2022-08-31T11:05:57.726Z,17.17
2022-08-31T11:07:26.693Z,15.60
2022-08-31T11:08:54.153Z,16.45
2022-08-31T11:10:19.948Z,14.82
2022-08-31T11:11:25.304Z,16.33
2022-08-31T11:12:31.989Z,15.73
2022-08-31T11:13:38.518Z,17.13
2022-08-31T11:15:11.821Z,15.75
2022-08-31T11:16:28.039Z,16.25
2022-08-31T11:17:50.128Z,15.80
2022-08-31T11:19:10.107Z,15.73
2022-08-31T11:20:28.744Z,16.35
2022-08-31T11:21:47.149Z,15.23
2022-08-31T11:23:05.999Z,14.63
2022-08-31T11:24:24.139Z,15.02
2022-08-31T11:25:47.524Z,14.45
2022-08-31T11:27:14.256Z,13.55
2022-08-31T11:28:35.882Z,13.70
2022-08-31T11:29:41.630Z,14.18
2022-08-31T11:30:50.080Z,13.20
2022-08-31T11:31:49.956Z,13.32
2022-08-31T11:32:52.087Z,13.00
2022-08-31T11:34:15.173Z,13.52
2022-08-31T11:35:15.686Z,12.60
2022-08-31T11:36:12.411Z,13.23
2022-08-31T11:37:09.799Z,12.48
2022-08-31T11:38:06.533Z,12.98
2022-08-31T11:39:03.631Z,12.93
2022-08-31T11:40:00.394Z,11.93
2022-08-31T11:41:03.905Z,12.00
2022-08-31T11:42:01.004Z,12.02
2022-08-31T11:43:01.301Z,12.18
2022-08-31T11:43:58.205Z,12.63
2022-08-31T11:45:05.609Z,11.60
2022-08-31T11:46:34.424Z,10.60
2022-08-31T11:47:41.567Z,10.95
2022-08-31T11:48:51.489Z,11.10
2022-08-31T11:49:54.298Z,10.95
2022-08-31T11:51:07.384Z,11.57
2022-08-31T11:53:33.106Z,11.07
2022-08-31T11:54:35.723Z,11.25
2022-08-31T11:55:48.544Z,10.43
2022-08-31T11:56:47.556Z,10.93
2022-08-31T11:58:10.111Z,11.35
2022-08-31T11:59:34.109Z,12.13
2022-08-31T12:01:03.004Z,11.35
2022-08-31T12:02:21.190Z,10.32
2022-08-31T12:03:37.122Z,10.13
2022-08-31T12:04:41.979Z,10.07
2022-08-31T12:05:57.998Z,10.70
2022-08-31T12:06:59.482Z,10.40
2022-08-31T12:07:57.211Z,10.85
2022-08-31T12:09:46.382Z,11.07
2022-08-31T12:11:04.524Z,9.25
2022-08-31T12:12:21.727Z,10.52
2022-08-31T12:13:34.183Z,9.73
2022-08-31T12:14:57.547Z,9.93
2022-08-31T12:16:23.265Z,8.30
2022-08-31T12:17:33.910Z,10.65
2022-08-31T12:18:48.697Z,11.02
2022-08-31T12:20:02.451Z,8.60
2022-08-31T12:21:36.131Z,8.73
2022-08-31T12:22:57.291Z,9.73
2022-08-31T12:24:02.961Z,9.98
2022-08-31T12:25:09.306Z,9.90
2022-08-31T12:26:18.038Z,11.43
2022-08-31T12:27:39.954Z,9.50
2022-08-31T12:28:55.316Z,8.95
2022-08-31T12:30:06.767Z,10.02
2022-08-31T12:31:10.105Z,8.48
2022-08-31T12:32:54.524Z,9.20
2022-08-31T12:34:12.208Z,10.40
2022-08-31T12:35:08.838Z,8.75
2022-08-31T12:36:33.151Z,8.82
2022-08-31T12:37:32.888Z,11.02
2022-08-31T12:38:30.604Z,8.18
2022-08-31T12:39:28.954Z,9.85
2022-08-31T12:40:28.280Z,9.38
2022-08-31T12:41:25.602Z,8.00
2022-08-31T12:42:22.344Z,8.40
2022-08-31T12:43:39.921Z,11.30
2022-08-31T12:44:41.902Z,8.02
2022-08-31T12:46:02.097Z,8.20
2022-08-31T12:47:04.636Z,7.70
2022-08-31T12:48:36.398Z,7.57
2022-08-31T12:49:36.041Z,7.85
2022-08-31T12:50:45.086Z,7.88
2022-08-31T12:51:50.782Z,6.90
2022-08-31T12:53:10.223Z,7.80
2022-08-31T12:54:25.428Z,6.93
2022-08-31T12:55:48.977Z,6.20
2022-08-31T12:57:13.909Z,5.88
2022-08-31T12:58:42.680Z,5.18
2022-08-31T13:00:17.789Z,5.53
2022-08-31T13:01:21.604Z,5.65
2022-08-31T13:02:20.454Z,5.18
2022-08-31T13:03:17.437Z,5.45
2022-08-31T13:04:16.704Z,4.95
2022-08-31T13:05:30.048Z,4.65
2022-08-31T13:06:31.415Z,4.60
2022-08-31T13:07:34.142Z,4.70
2022-08-31T13:08:39.634Z,4.47
2022-08-31T13:09:36.394Z,4.88
2022-08-31T13:10:37.928Z,5.03
2022-08-31T13:11:40.696Z,5.03
2022-08-31T13:12:39.048Z,4.20
2022-08-31T13:13:37.701Z,4.47
2022-08-31T13:14:43.033Z,5.55
2022-08-31T13:15:42.388Z,5.65
2022-08-31T13:16:42.951Z,4.70
2022-08-31T13:17:39.792Z,4.75
2022-08-31T13:18:36.873Z,4.55
2022-08-31T13:19:35.261Z,5.07
2022-08-31T13:20:44.311Z,4.63
2022-08-31T13:21:41.484Z,4.38
2022-08-31T13:22:41.893Z,4.22
2022-08-31T13:23:48.154Z,5.13
2022-08-31T13:24:53.650Z,5.07
2022-08-31T13:26:13.520Z,4.45
2022-08-31T13:27:28.412Z,4.57
2022-08-31T13:28:30.133Z,4.45
2022-08-31T13:29:26.921Z,4.90